createdAt,value
2018-05-03T00:01:47.476Z,96112.30
2018-05-03T00:04:16.973Z,96111.70
2018-05-03T00:06:45.763Z,96107.92
2018-05-03T00:09:15.644Z,96095.03
2018-05-03T00:11:45.346Z,96098.41
2018-05-03T00:14:16.453Z,96100.19
2018-05-03T00:16:46.405Z,96100.58
2018-05-03T00:19:16.320Z,96098.80
2018-05-03T00:21:46.815Z,96097.41
2018-05-03T00:24:16.572Z,96094.83
2018-05-03T00:26:46.406Z,96093.02
2018-05-03T00:29:16.593Z,96086.67
2018-05-03T00:31:46.027Z,96091.63
2018-05-03T00:34:16.445Z,96077.34
2018-05-03T00:36:45.988Z,96077.54
2018-05-03T00:39:14.811Z,96065.83
2018-05-03T00:41:44.718Z,96063.81
2018-05-03T00:44:14.632Z,96063.25
2018-05-03T00:46:44.444Z,96064.05
2018-05-03T00:49:15.471Z,96063.03
2018-05-03T00:51:45.456Z,96062.23
2018-05-03T00:54:33.533Z,96074.54
2018-05-03T00:57:04.649Z,96085.63
2018-05-03T00:59:33.882Z,96067.37
2018-05-03T01:05:29.403Z,96056.84
2018-05-03T01:07:59.772Z,96049.91
2018-05-03T01:10:30.387Z,96047.33
2018-05-03T01:13:00.495Z,96054.25
2018-05-03T01:15:29.876Z,96060.59
2018-05-03T01:17:59.853Z,96040.75
2018-05-03T01:20:29.493Z,96048.48
2018-05-03T01:22:58.949Z,96039.19
2018-05-03T01:25:28.473Z,96029.86
2018-05-03T01:27:57.872Z,96032.25
2018-05-03T01:30:26.686Z,96037.58
2018-05-03T01:33:03.574Z,96035.80
2018-05-03T01:35:51.664Z,96040.95
2018-05-03T01:38:20.876Z,96032.42
2018-05-03T01:40:50.538Z,96019.74
2018-05-03T01:43:19.840Z,96026.07
2018-05-03T01:45:49.724Z,96038.37
2018-05-03T01:48:19.647Z,96023.69
2018-05-03T01:50:48.841Z,96022.50
2018-05-03T01:53:20.672Z,96024.28
2018-05-03T01:55:50.530Z,96029.62
2018-05-03T01:58:20.866Z,96027.42
2018-05-03T02:00:55.495Z,96042.52
2018-05-03T02:03:25.493Z,96038.55
2018-05-03T02:05:55.873Z,96032.59
2018-05-03T02:08:25.492Z,96034.98
2018-05-03T02:10:55.016Z,96034.16
2018-05-03T02:13:24.983Z,96029.99
2018-05-03T02:15:53.719Z,96036.34
2018-05-03T02:18:23.412Z,96024.24
2018-05-03T02:20:52.849Z,96026.42
2018-05-03T02:23:22.532Z,96031.58
2018-05-03T02:25:51.809Z,96020.08
2018-05-03T02:28:21.524Z,96011.34
2018-05-03T02:33:32.815Z,96008.55
2018-05-03T02:36:02.520Z,96003.19
2018-05-03T02:38:32.443Z,96002.19
2018-05-03T02:41:02.024Z,96003.58
2018-05-03T02:43:32.459Z,95998.82
2018-05-03T02:46:03.598Z,96000.80
2018-05-03T02:48:33.425Z,95988.89
2018-05-03T02:51:02.840Z,95998.42
2018-05-03T02:53:32.523Z,95982.95
2018-05-03T02:56:02.732Z,95976.59
2018-05-03T02:58:50.605Z,95982.16
2018-05-03T04:04:22.788Z,95900.13
2018-05-03T04:06:51.944Z,95863.80
2018-05-03T04:09:20.666Z,95888.19
2018-05-03T04:11:50.424Z,95864.02
2018-05-03T04:14:19.825Z,95866.97
2018-05-03T04:16:50.507Z,95890.58
2018-05-03T04:19:38.598Z,95927.30
2018-05-03T04:22:26.792Z,95930.85
2018-05-03T04:25:16.878Z,95920.34
2018-05-03T04:27:46.629Z,95897.50
2018-05-03T04:30:18.110Z,95892.34
2018-05-03T04:32:47.792Z,95908.59
2018-05-03T04:35:18.828Z,95962.20
2018-05-03T04:37:48.476Z,95982.45
2018-05-03T04:40:19.546Z,95995.94
2018-05-03T04:42:48.796Z,96013.79
2018-05-03T04:45:18.799Z,96020.34
2018-05-03T04:47:48.703Z,96029.27
2018-05-03T04:50:20.519Z,96024.50
2018-05-03T04:52:50.436Z,96011.22
2018-05-03T04:55:19.771Z,96024.28
2018-05-03T04:57:49.339Z,96032.05
2018-05-03T05:00:22.927Z,96002.86
2018-05-03T06:04:24.947Z,95985.16
2018-05-03T06:06:53.654Z,95983.96
2018-05-03T06:09:23.435Z,95983.17
2018-05-03T06:11:53.944Z,95982.77
2018-05-03T06:14:29.629Z,95979.60
2018-05-03T06:16:58.826Z,96000.63
2018-05-03T06:19:28.428Z,95998.27
2018-05-03T06:21:57.794Z,95995.07
2018-05-03T06:24:27.513Z,95996.69
2018-05-03T06:26:56.949Z,95991.55
2018-05-03T06:29:27.509Z,96000.50
2018-05-03T06:31:57.078Z,96006.63
2018-05-03T06:34:26.851Z,96019.30
2018-05-03T06:36:57.645Z,96025.62
2018-05-03T06:39:26.793Z,96002.59
2018-05-03T06:42:01.279Z,96005.55
2018-05-03T06:44:31.512Z,96001.80
2018-05-03T06:47:00.885Z,96015.09
2018-05-03T06:49:30.473Z,96020.05
2018-05-03T06:51:59.809Z,96031.19
2018-05-03T06:54:29.563Z,96040.11
2018-05-03T06:56:58.936Z,96029.39
2018-05-03T06:59:27.736Z,96030.16
2018-05-03T07:01:57.445Z,96037.11
2018-05-03T07:04:26.803Z,96038.88
2018-05-03T07:06:56.439Z,96039.87
2018-05-03T07:09:26.443Z,96030.91
2018-05-03T07:11:55.847Z,96032.08
2018-05-03T07:14:25.524Z,96027.52
2018-05-03T07:16:55.480Z,96015.44
2018-05-03T07:19:25.638Z,96024.78
2018-05-03T07:21:55.416Z,96031.73
2018-05-03T07:24:25.447Z,96017.25
2018-05-03T07:26:56.445Z,96032.55
2018-05-03T07:29:25.825Z,96022.00
2018-05-03T07:31:54.972Z,96017.27
2018-05-03T07:34:24.668Z,96025.01
2018-05-03T07:36:54.436Z,96024.41
2018-05-03T07:39:24.441Z,96031.19
2018-05-03T07:41:53.850Z,96028.00
2018-05-03T07:44:23.419Z,96024.48
2018-05-03T07:46:53.012Z,96028.84
2018-05-03T07:49:21.632Z,96027.63
2018-05-03T07:51:50.831Z,96032.20
2018-05-03T07:54:20.435Z,96036.95
2018-05-03T07:56:50.729Z,96045.52
2018-05-03T08:08:05.798Z,96048.46
2018-05-03T08:10:35.875Z,96059.57
2018-05-03T08:13:06.462Z,96057.39
2018-05-03T08:15:35.860Z,96052.44
2018-05-03T08:18:05.967Z,96059.17
2018-05-03T08:20:37.055Z,96060.97
2018-05-03T08:23:08.663Z,96063.56
2018-05-03T08:25:38.526Z,96066.34
2018-05-03T08:28:09.429Z,96066.52
2018-05-03T08:30:40.005Z,96074.84
2018-05-03T08:33:10.415Z,96064.53
2018-05-03T08:35:41.345Z,96049.45
2018-05-03T08:38:11.481Z,96039.14
2018-05-03T08:40:40.883Z,96038.34
2018-05-03T08:43:10.471Z,96020.30
2018-05-03T08:45:40.837Z,96031.63
2018-05-03T08:48:10.444Z,96041.50
2018-05-03T08:50:39.845Z,96037.18
2018-05-03T08:53:09.435Z,96043.70
2018-05-03T08:55:39.415Z,96051.07
2018-05-03T09:02:40.774Z,96060.17
2018-05-03T09:05:09.995Z,96052.01
2018-05-03T09:07:39.350Z,96054.61
2018-05-03T09:10:08.884Z,96070.06
2018-05-03T09:12:38.434Z,96074.25
2018-05-03T09:15:07.827Z,96066.19
2018-05-03T09:17:37.415Z,96067.66
2018-05-03T09:20:07.699Z,96060.95
2018-05-03T09:22:36.870Z,96066.50
2018-05-03T09:25:06.364Z,96053.61
2018-05-03T09:27:35.826Z,96043.34
2018-05-03T09:30:05.333Z,96041.12
2018-05-03T09:32:42.815Z,96047.70
2018-05-03T09:35:15.617Z,96051.70
2018-05-03T09:37:44.802Z,96056.79
2018-05-03T09:40:15.538Z,96070.84
2018-05-03T09:42:45.839Z,96069.46
2018-05-03T09:45:17.328Z,96077.77
2018-05-03T09:47:46.815Z,96088.66
2018-05-03T09:50:17.874Z,96089.83
2018-05-03T09:52:46.697Z,96092.02
2018-05-03T09:55:17.844Z,96088.81
2018-05-03T09:57:47.777Z,96109.70
2018-05-03T10:00:18.821Z,96105.16
2018-05-03T10:02:48.282Z,96106.75
2018-05-03T10:05:18.829Z,96112.28
2018-05-03T10:07:48.889Z,96107.27
2018-05-03T10:10:20.459Z,96107.44
2018-05-03T10:12:50.835Z,96109.45
2018-05-03T10:15:20.782Z,96111.45
2018-05-03T10:17:49.870Z,96105.87
2018-05-03T10:20:20.879Z,96109.62
2018-05-03T10:22:50.674Z,96118.12
2018-05-03T10:25:19.916Z,96116.09
2018-05-03T10:27:49.625Z,96116.27
2018-05-03T10:30:21.527Z,96118.45
2018-05-03T10:32:50.769Z,96109.32
2018-05-03T10:35:20.846Z,96115.67
2018-05-03T10:37:50.402Z,96114.48
2018-05-03T10:40:20.844Z,96108.53
2018-05-03T10:42:50.240Z,96121.83
2018-05-03T10:45:20.675Z,96109.30
2018-05-03T10:47:49.973Z,96108.88
2018-05-03T10:50:19.733Z,96113.83
2018-05-03T10:52:48.887Z,96105.72
2018-05-03T10:55:19.348Z,96114.87
2018-05-03T10:57:49.729Z,96115.08
2018-05-03T11:00:21.360Z,96122.44
2018-05-03T11:02:51.549Z,96127.85
2018-05-03T11:05:21.142Z,96131.08
2018-05-03T11:07:50.785Z,96129.56
2018-05-03T11:10:20.795Z,96127.23
2018-05-03T11:12:50.442Z,96120.94
2018-05-03T11:15:19.841Z,96129.86
2018-05-03T11:17:49.340Z,96142.84
2018-05-03T11:20:20.460Z,96146.83
2018-05-03T11:22:49.769Z,96132.94
2018-05-03T11:25:18.841Z,96134.80
2018-05-03T11:27:48.415Z,96137.18
2018-05-03T11:30:20.423Z,96131.83
2018-05-03T11:32:49.855Z,96136.11
2018-05-03T11:35:19.335Z,96136.66
2018-05-03T11:37:48.780Z,96145.98
2018-05-03T11:40:19.620Z,96145.71
2018-05-03T11:42:49.877Z,96160.42
2018-05-03T11:45:27.654Z,96169.75
2018-05-03T11:47:57.849Z,96154.88
2018-05-03T11:50:27.333Z,96160.41
2018-05-03T11:52:56.778Z,96165.95
2018-05-03T11:55:25.970Z,96156.03
2018-05-03T11:57:54.754Z,96157.23
2018-05-03T12:00:24.240Z,96146.68
2018-05-03T12:02:53.823Z,96137.75
2018-05-03T12:08:05.423Z,96140.92
2018-05-03T12:10:34.951Z,96142.91
2018-05-03T12:13:03.677Z,96143.68
2018-05-03T12:15:32.809Z,96153.41
2018-05-03T12:18:02.512Z,96155.19
2018-05-03T12:20:32.698Z,96148.84
2018-05-03T12:23:02.704Z,96149.63
2018-05-03T12:25:32.316Z,96136.34
2018-05-03T12:28:02.569Z,96126.61
2018-05-03T12:30:31.776Z,96116.47
2018-05-03T12:33:01.960Z,96103.97
2018-05-03T12:35:30.675Z,96101.56
2018-05-03T12:37:59.785Z,96103.95
2018-05-03T12:40:28.836Z,96109.07
2018-05-03T12:42:58.421Z,96114.23
2018-05-03T12:45:28.786Z,96124.55
2018-05-03T12:47:58.427Z,96123.95
2018-05-03T12:50:28.425Z,96118.80
2018-05-03T12:52:58.685Z,96110.27
2018-05-03T12:55:28.758Z,96081.10
2018-05-03T12:57:58.673Z,96053.70
2018-05-03T14:00:34.879Z,95937.91
2018-05-03T14:03:04.517Z,95950.02
2018-05-03T14:05:34.462Z,95951.81
2018-05-03T14:08:03.796Z,95952.80
2018-05-03T14:10:32.856Z,95969.49
2018-05-03T14:15:46.432Z,95958.38
2018-05-03T14:20:58.711Z,95959.78
2018-05-03T14:23:27.817Z,95960.03
2018-05-03T14:25:57.439Z,95939.98
2018-05-03T14:28:27.437Z,95939.99
2018-05-03T14:31:13.851Z,95944.36
2018-05-03T14:33:43.726Z,95938.00
2018-05-03T14:36:13.798Z,95948.19
2018-05-03T14:38:44.378Z,95946.61
2018-05-03T14:41:15.876Z,95947.41
2018-05-03T14:43:45.537Z,95957.55
2018-05-03T14:46:14.858Z,95949.62
2018-05-03T14:48:45.670Z,95947.44
2018-05-03T14:51:14.810Z,95950.61
2018-05-03T14:53:44.493Z,95942.48
2018-05-03T14:58:54.851Z,95955.58
2018-05-03T15:01:24.458Z,95960.31
2018-05-03T15:03:54.517Z,95961.91
2018-05-03T15:06:24.440Z,95965.06
2018-05-03T15:08:53.864Z,95955.52
2018-05-03T15:11:23.414Z,95958.28
2018-05-03T15:13:52.773Z,95962.83
2018-05-03T15:16:22.037Z,95962.98
2018-05-03T15:18:51.697Z,95967.15
2018-05-03T15:21:21.952Z,95968.52
2018-05-03T15:23:51.417Z,95970.94
2018-05-03T15:26:20.850Z,95957.05
2018-05-03T15:28:50.675Z,95947.71
2018-05-03T15:31:20.567Z,95952.50
2018-05-03T15:33:50.880Z,95948.14
2018-05-03T15:36:20.385Z,95957.25
2018-05-03T15:38:49.780Z,95964.98
2018-05-03T15:41:19.492Z,95960.42
2018-05-03T15:43:48.779Z,95967.77
2018-05-03T15:46:17.839Z,95972.70
2018-05-03T15:48:47.382Z,95952.86
2018-05-03T15:51:17.004Z,95947.28
2018-05-03T15:53:46.543Z,95946.11
2018-05-03T15:56:15.852Z,95944.90
2018-05-03T15:58:45.493Z,95945.72
2018-05-03T16:01:15.159Z,95951.09
2018-05-03T16:03:45.428Z,95952.89
2018-05-03T16:06:15.835Z,95949.12
2018-05-03T16:08:45.453Z,95957.06
2018-05-03T16:11:14.833Z,95950.34
2018-05-03T16:13:44.444Z,95951.74
2018-05-03T16:16:16.352Z,95953.33
2018-05-03T16:18:46.948Z,95946.39
2018-05-03T16:21:15.718Z,95948.41
2018-05-03T16:23:44.828Z,95953.75
2018-05-03T16:26:14.314Z,95950.20
2018-05-03T16:28:44.370Z,95950.03
2018-05-03T16:31:14.434Z,95946.43
2018-05-03T16:33:43.828Z,95947.66
2018-05-03T16:36:13.574Z,95946.46
2018-05-03T16:38:45.677Z,95948.86
2018-05-03T16:41:14.805Z,95951.05
2018-05-03T16:43:43.876Z,95946.10
2018-05-03T16:46:13.710Z,95952.45
2018-05-03T16:48:42.880Z,95954.86
2018-05-03T16:51:13.213Z,95971.14
2018-05-03T16:53:43.927Z,95984.83
2018-05-03T16:56:12.666Z,96000.48
2018-05-03T16:58:41.781Z,96017.53
2018-05-03T17:01:17.810Z,96020.73
2018-05-03T17:03:47.708Z,96023.69
2018-05-03T17:06:16.886Z,96028.66
2018-05-03T17:08:46.587Z,96040.56
2018-05-03T17:11:17.427Z,96043.16
2018-05-03T17:13:49.799Z,96057.82
2018-05-03T17:16:19.445Z,96059.81
2018-05-03T17:18:48.863Z,96075.47
2018-05-03T17:21:18.401Z,96078.64
2018-05-03T17:23:47.800Z,96086.98
2018-05-03T17:26:16.874Z,96089.56
2018-05-03T17:28:46.480Z,96085.22
2018-05-03T17:31:15.779Z,96092.96
2018-05-03T17:33:45.012Z,96092.98
2018-05-03T17:36:13.649Z,96086.43
2018-05-03T17:38:44.437Z,96086.02
2018-05-03T17:41:13.788Z,96085.39
2018-05-03T17:43:44.606Z,96068.50
2018-05-03T17:46:13.791Z,96064.53
2018-05-03T17:48:42.861Z,96065.91
2018-05-03T17:51:12.538Z,96060.56
2018-05-03T17:53:41.781Z,96054.20
2018-05-03T17:56:11.448Z,96060.54
2018-05-03T17:58:40.786Z,96064.31
2018-05-03T18:01:09.875Z,96066.49
2018-05-03T18:03:39.797Z,96069.87
2018-05-03T18:06:09.442Z,96064.31
2018-05-03T18:08:39.553Z,96051.98
2018-05-03T18:11:08.980Z,96054.19
2018-05-03T18:13:40.388Z,96062.32
2018-05-03T18:16:09.887Z,96061.14
2018-05-03T18:18:39.509Z,96073.30
2018-05-03T18:21:10.435Z,96074.67
2018-05-03T18:23:40.390Z,96071.12
2018-05-03T18:26:09.849Z,96095.74
2018-05-03T18:28:41.431Z,96085.80
2018-05-03T18:31:10.818Z,96098.69
2018-05-03T18:33:40.880Z,96090.16
2018-05-03T18:36:10.738Z,96099.69
2018-05-03T18:38:40.733Z,96102.91
2018-05-03T18:41:10.461Z,96093.78
2018-05-03T18:43:40.999Z,96093.41
2018-05-03T18:46:10.342Z,96095.02
2018-05-03T19:00:40.383Z,96120.20
2018-05-03T19:03:26.599Z,96115.87
2018-05-03T19:05:55.855Z,96127.98
2018-05-03T19:08:25.862Z,96136.47
2018-05-03T19:10:55.521Z,96126.34
2018-05-03T19:13:26.012Z,96137.86
2018-05-03T19:15:55.901Z,96132.30
2018-05-03T19:18:24.770Z,96136.27
2018-05-03T19:20:55.606Z,96134.28
2018-05-03T19:23:24.952Z,96133.50
2018-05-03T19:25:54.572Z,96130.28
2018-05-03T19:28:25.491Z,96133.66
2018-05-03T19:30:58.670Z,96138.45
2018-05-03T19:33:28.661Z,96137.86
2018-05-03T19:35:58.479Z,96143.42
2018-05-03T19:38:28.399Z,96157.55
2018-05-03T19:41:00.004Z,96149.97
2018-05-03T19:43:30.918Z,96166.87
2018-05-03T19:46:00.315Z,96168.29
2018-05-03T19:48:30.490Z,96171.27
2018-05-03T19:51:30.481Z,96164.69
2018-05-03T20:02:50.641Z,96165.02
2018-05-03T20:05:19.683Z,96152.52
2018-05-03T20:07:48.988Z,96158.89
2018-05-03T20:10:20.713Z,96156.68
2018-05-03T20:12:50.003Z,96166.55
2018-05-03T20:15:20.443Z,96172.52
2018-05-03T20:17:50.830Z,96164.38
2018-05-03T20:20:23.838Z,96174.70
2018-05-03T20:22:54.526Z,96176.11
2018-05-03T20:25:23.805Z,96166.78
2018-05-03T20:27:53.841Z,96175.52
2018-05-03T20:30:23.885Z,96169.34
2018-05-03T20:32:54.472Z,96168.52
2018-05-03T20:35:24.632Z,96155.20
2018-05-03T20:37:54.011Z,96157.17
2018-05-03T20:40:25.829Z,96150.01
2018-05-03T20:42:56.024Z,96150.60
2018-05-03T20:45:27.895Z,96153.58
2018-05-03T20:47:56.864Z,96158.77
2018-05-03T20:50:26.535Z,96157.38
2018-05-03T21:01:42.437Z,96131.97
2018-05-03T21:04:12.491Z,96125.78
2018-05-03T21:06:41.825Z,96136.88
2018-05-03T21:09:13.418Z,96139.04
2018-05-03T21:11:42.831Z,96150.16
2018-05-03T21:14:12.496Z,96155.15
2018-05-03T21:16:42.815Z,96169.84
2018-05-03T21:19:13.792Z,96166.27
2018-05-03T21:21:43.445Z,96162.27
2018-05-03T21:24:13.517Z,96159.88
2018-05-03T21:26:47.328Z,96162.47
2018-05-03T21:29:17.436Z,96158.07
2018-05-03T21:31:46.789Z,96154.08
2018-05-03T21:34:15.846Z,96151.10
2018-05-03T21:36:45.441Z,96156.66
2018-05-03T21:39:14.864Z,96159.44
2018-05-03T21:41:43.729Z,96171.16
2018-05-03T21:44:13.535Z,96172.34
2018-05-03T21:46:42.922Z,96175.72
2018-05-03T21:49:11.739Z,96181.27
2018-05-03T21:51:41.697Z,96175.52
2018-05-03T21:54:10.866Z,96175.91
2018-05-03T21:56:40.765Z,96167.98
2018-05-03T21:59:09.881Z,96178.32
2018-05-03T22:01:40.865Z,96184.11
2018-05-03T22:04:10.523Z,96187.28
2018-05-03T22:06:49.504Z,96182.72
2018-05-03T22:09:18.960Z,96179.71
2018-05-03T22:11:47.700Z,96180.33
2018-05-03T22:14:16.859Z,96177.80
2018-05-03T22:16:46.497Z,96178.57
2018-05-03T22:19:18.955Z,96175.99
2018-05-03T22:21:47.691Z,96176.41
2018-05-03T22:24:16.941Z,96175.56
2018-05-03T22:26:45.715Z,96178.75
2018-05-03T22:29:14.957Z,96184.48
2018-05-03T22:31:43.707Z,96183.45
2018-05-03T22:34:12.876Z,96187.43
2018-05-03T22:36:41.737Z,96188.42
2018-05-03T22:39:11.049Z,96188.03
2018-05-03T22:41:41.278Z,96185.22
2018-05-03T22:44:10.982Z,96195.56
2018-05-03T22:46:41.429Z,96192.79
2018-05-03T22:49:10.946Z,96198.34
2018-05-03T22:54:21.462Z,96198.55
2018-05-03T22:56:50.833Z,96196.36
2018-05-03T22:59:22.494Z,96196.36
2018-05-03T23:01:52.463Z,96199.31
2018-05-03T23:04:22.661Z,96194.77
2018-05-03T23:06:53.647Z,96191.03
2018-05-03T23:09:27.868Z,96188.02
2018-05-03T23:11:57.774Z,96192.19
2018-05-03T23:14:29.719Z,96196.36
2018-05-03T23:16:59.708Z,96192.19
2018-05-03T23:19:29.676Z,96201.33
2018-05-03T23:21:59.492Z,96195.59
2018-05-03T23:24:29.387Z,96192.81
2018-05-03T23:26:59.493Z,96206.31
2018-05-03T23:29:28.862Z,96202.37
2018-05-03T23:31:58.454Z,96195.98
2018-05-03T23:34:28.513Z,96203.30
2018-05-03T23:37:02.504Z,96195.80
2018-05-03T23:39:31.950Z,96198.74
2018-05-03T23:42:00.695Z,96189.61
2018-05-03T23:44:29.952Z,96190.20
2018-05-03T23:46:58.740Z,96194.97
2018-05-03T23:49:27.872Z,96194.55
2018-05-03T23:51:57.716Z,96207.65
2018-05-03T23:54:26.846Z,96198.92
2018-05-03T23:56:56.882Z,96196.73
2018-05-03T23:59:26.323Z,96195.73
